sensor_id;sensor_type;location;lat;lon;timestamp;P1;durP1;ratioP1;P2;durP2;ratioP2
27039;SDS011;14589;51.578;7.306;2022-08-19T00:00:44;8.73;;;5.60;;
27039;SDS011;14589;51.578;7.306;2022-08-19T00:03:09;8.15;;;5.20;;
27039;SDS011;14589;51.578;7.306;2022-08-19T00:05:35;7.50;;;4.80;;
27039;SDS011;14589;51.578;7.306;2022-08-19T00:08:00;8.98;;;5.50;;
27039;SDS011;14589;51.578;7.306;2022-08-19T00:10:26;7.60;;;5.30;;
27039;SDS011;14589;51.578;7.306;2022-08-19T00:12:51;7.65;;;5.72;;
27039;SDS011;14589;51.578;7.306;2022-08-19T00:15:17;8.93;;;5.05;;
27039;SDS011;14589;51.578;7.306;2022-08-19T00:17:44;6.45;;;4.53;;
27039;SDS011;14589;51.578;7.306;2022-08-19T00:20:11;8.35;;;5.10;;
27039;SDS011;14589;51.578;7.306;2022-08-19T00:22:38;7.00;;;4.93;;
27039;SDS011;14589;51.578;7.306;2022-08-19T00:25:04;5.13;;;4.30;;
27039;SDS011;14589;51.578;7.306;2022-08-19T00:27:31;8.02;;;5.20;;
27039;SDS011;14589;51.578;7.306;2022-08-19T00:29:56;7.07;;;5.03;;
27039;SDS011;14589;51.578;7.306;2022-08-19T00:32:23;6.95;;;4.78;;
27039;SDS011;14589;51.578;7.306;2022-08-19T00:34:50;6.45;;;4.50;;
27039;SDS011;14589;51.578;7.306;2022-08-19T00:37:17;11.13;;;5.50;;
27039;SDS011;14589;51.578;7.306;2022-08-19T00:39:44;6.10;;;5.10;;
27039;SDS011;14589;51.578;7.306;2022-08-19T00:42:09;8.48;;;5.75;;
27039;SDS011;14589;51.578;7.306;2022-08-19T00:44:35;8.75;;;5.78;;
27039;SDS011;14589;51.578;7.306;2022-08-19T00:47:00;8.95;;;5.88;;
27039;SDS011;14589;51.578;7.306;2022-08-19T00:51:57;7.70;;;5.10;;
27039;SDS011;14589;51.578;7.306;2022-08-19T00:54:28;6.68;;;4.50;;
27039;SDS011;14589;51.578;7.306;2022-08-19T00:56:56;7.07;;;4.97;;
27039;SDS011;14589;51.578;7.306;2022-08-19T00:59:22;6.95;;;4.82;;
27039;SDS011;14589;51.578;7.306;2022-08-19T01:01:48;9.90;;;5.22;;
27039;SDS011;14589;51.578;7.306;2022-08-19T01:04:13;7.57;;;5.03;;
27039;SDS011;14589;51.578;7.306;2022-08-19T01:06:39;7.95;;;4.53;;
27039;SDS011;14589;51.578;7.306;2022-08-19T01:09:06;9.02;;;5.18;;
27039;SDS011;14589;51.578;7.306;2022-08-19T01:11:33;9.90;;;5.13;;
27039;SDS011;14589;51.578;7.306;2022-08-19T01:14:02;11.65;;;5.88;;
27039;SDS011;14589;51.578;7.306;2022-08-19T01:16:28;9.90;;;5.32;;
27039;SDS011;14589;51.578;7.306;2022-08-19T01:18:54;8.43;;;4.88;;
27039;SDS011;14589;51.578;7.306;2022-08-19T01:23:57;7.30;;;4.30;;
27039;SDS011;14589;51.578;7.306;2022-08-19T01:26:23;11.88;;;5.70;;
27039;SDS011;14589;51.578;7.306;2022-08-19T01:28:51;10.98;;;5.25;;
27039;SDS011;14589;51.578;7.306;2022-08-19T01:31:20;13.45;;;5.93;;
27039;SDS011;14589;51.578;7.306;2022-08-19T01:33:49;12.88;;;5.75;;
27039;SDS011;14589;51.578;7.306;2022-08-19T01:36:19;13.35;;;5.45;;
27039;SDS011;14589;51.578;7.306;2022-08-19T01:38:48;15.25;;;5.75;;
27039;SDS011;14589;51.578;7.306;2022-08-19T01:41:14;12.10;;;5.45;;
27039;SDS011;14589;51.578;7.306;2022-08-19T01:43:41;10.60;;;5.72;;
27039;SDS011;14589;51.578;7.306;2022-08-19T01:46:06;11.38;;;5.50;;
27039;SDS011;14589;51.578;7.306;2022-08-19T01:48:32;15.18;;;5.90;;
27039;SDS011;14589;51.578;7.306;2022-08-19T01:51:00;11.77;;;5.57;;
27039;SDS011;14589;51.578;7.306;2022-08-19T01:53:25;10.70;;;5.15;;
27039;SDS011;14589;51.578;7.306;2022-08-19T01:55:51;10.35;;;5.93;;
27039;SDS011;14589;51.578;7.306;2022-08-19T01:58:18;9.15;;;5.22;;
27039;SDS011;14589;51.578;7.306;2022-08-19T02:00:46;11.68;;;5.70;;
27039;SDS011;14589;51.578;7.306;2022-08-19T02:03:13;10.90;;;5.93;;
27039;SDS011;14589;51.578;7.306;2022-08-19T02:05:39;10.95;;;5.65;;
27039;SDS011;14589;51.578;7.306;2022-08-19T02:08:05;9.07;;;5.47;;
27039;SDS011;14589;51.578;7.306;2022-08-19T02:10:31;10.73;;;5.85;;
27039;SDS011;14589;51.578;7.306;2022-08-19T02:12:57;12.48;;;5.95;;
27039;SDS011;14589;51.578;7.306;2022-08-19T02:15:22;9.15;;;5.95;;
27039;SDS011;14589;51.578;7.306;2022-08-19T02:17:49;8.85;;;5.30;;
27039;SDS011;14589;51.578;7.306;2022-08-19T02:20:15;10.57;;;6.03;;
27039;SDS011;14589;51.578;7.306;2022-08-19T02:22:41;10.02;;;5.40;;
27039;SDS011;14589;51.578;7.306;2022-08-19T02:25:08;10.05;;;6.25;;
27039;SDS011;14589;51.578;7.306;2022-08-19T02:27:34;9.82;;;6.03;;
27039;SDS011;14589;51.578;7.306;2022-08-19T02:30:00;11.93;;;5.85;;
27039;SDS011;14589;51.578;7.306;2022-08-19T02:32:26;9.63;;;5.93;;
27039;SDS011;14589;51.578;7.306;2022-08-19T02:34:51;8.60;;;6.13;;
27039;SDS011;14589;51.578;7.306;2022-08-19T02:37:16;9.18;;;6.03;;
27039;SDS011;14589;51.578;7.306;2022-08-19T02:40:00;8.68;;;5.90;;
27039;SDS011;14589;51.578;7.306;2022-08-19T02:42:26;8.57;;;5.28;;
27039;SDS011;14589;51.578;7.306;2022-08-19T02:44:51;11.38;;;5.40;;
27039;SDS011;14589;51.578;7.306;2022-08-19T02:47:17;9.57;;;6.20;;
27039;SDS011;14589;51.578;7.306;2022-08-19T02:49:44;8.15;;;5.97;;
27039;SDS011;14589;51.578;7.306;2022-08-19T02:52:10;8.35;;;5.97;;
27039;SDS011;14589;51.578;7.306;2022-08-19T02:54:36;11.23;;;6.00;;
27039;SDS011;14589;51.578;7.306;2022-08-19T02:57:02;11.35;;;6.57;;
27039;SDS011;14589;51.578;7.306;2022-08-19T02:59:32;7.85;;;5.07;;
27039;SDS011;14589;51.578;7.306;2022-08-19T03:01:57;8.45;;;5.70;;
27039;SDS011;14589;51.578;7.306;2022-08-19T03:04:23;10.30;;;5.90;;
27039;SDS011;14589;51.578;7.306;2022-08-19T03:06:49;8.00;;;5.97;;
27039;SDS011;14589;51.578;7.306;2022-08-19T03:09:15;12.13;;;7.10;;
27039;SDS011;14589;51.578;7.306;2022-08-19T03:11:42;8.10;;;5.55;;
27039;SDS011;14589;51.578;7.306;2022-08-19T03:14:08;9.82;;;6.68;;
27039;SDS011;14589;51.578;7.306;2022-08-19T03:16:39;9.65;;;6.05;;
27039;SDS011;14589;51.578;7.306;2022-08-19T03:19:18;8.68;;;6.25;;
27039;SDS011;14589;51.578;7.306;2022-08-19T03:21:45;9.77;;;6.55;;
27039;SDS011;14589;51.578;7.306;2022-08-19T03:24:11;10.27;;;6.70;;
27039;SDS011;14589;51.578;7.306;2022-08-19T03:26:39;10.38;;;6.18;;
27039;SDS011;14589;51.578;7.306;2022-08-19T03:29:06;9.43;;;5.97;;
27039;SDS011;14589;51.578;7.306;2022-08-19T03:31:31;8.98;;;5.65;;
27039;SDS011;14589;51.578;7.306;2022-08-19T03:33:57;10.50;;;6.20;;
27039;SDS011;14589;51.578;7.306;2022-08-19T03:36:23;10.13;;;6.10;;
27039;SDS011;14589;51.578;7.306;2022-08-19T03:38:51;10.18;;;6.05;;
27039;SDS011;14589;51.578;7.306;2022-08-19T03:41:23;7.75;;;5.38;;
27039;SDS011;14589;51.578;7.306;2022-08-19T03:43:50;7.38;;;5.05;;
27039;SDS011;14589;51.578;7.306;2022-08-19T03:46:18;10.40;;;6.25;;
27039;SDS011;14589;51.578;7.306;2022-08-19T03:48:48;7.43;;;5.63;;
27039;SDS011;14589;51.578;7.306;2022-08-19T03:51:26;7.85;;;5.53;;
27039;SDS011;14589;51.578;7.306;2022-08-19T03:53:57;7.85;;;5.90;;
27039;SDS011;14589;51.578;7.306;2022-08-19T03:56:24;10.95;;;6.68;;
27039;SDS011;14589;51.578;7.306;2022-08-19T03:58:51;13.00;;;8.00;;
27039;SDS011;14589;51.578;7.306;2022-08-19T04:01:18;13.13;;;7.57;;
27039;SDS011;14589;51.578;7.306;2022-08-19T04:03:45;15.48;;;7.65;;
27039;SDS011;14589;51.578;7.306;2022-08-19T04:06:18;10.60;;;7.25;;
27039;SDS011;14589;51.578;7.306;2022-08-19T04:08:56;10.95;;;6.97;;
27039;SDS011;14589;51.578;7.306;2022-08-19T04:11:27;10.77;;;7.03;;
27039;SDS011;14589;51.578;7.306;2022-08-19T04:13:54;11.95;;;7.13;;
27039;SDS011;14589;51.578;7.306;2022-08-19T04:16:22;8.93;;;6.30;;
27039;SDS011;14589;51.578;7.306;2022-08-19T04:18:49;9.65;;;6.45;;
27039;SDS011;14589;51.578;7.306;2022-08-19T04:21:19;9.07;;;6.20;;
27039;SDS011;14589;51.578;7.306;2022-08-19T04:23:46;11.27;;;6.97;;
27039;SDS011;14589;51.578;7.306;2022-08-19T04:26:13;9.88;;;6.25;;
27039;SDS011;14589;51.578;7.306;2022-08-19T04:28:43;9.95;;;6.38;;
27039;SDS011;14589;51.578;7.306;2022-08-19T04:31:13;9.75;;;6.05;;
27039;SDS011;14589;51.578;7.306;2022-08-19T04:33:46;9.02;;;5.45;;
27039;SDS011;14589;51.578;7.306;2022-08-19T04:36:16;8.48;;;5.93;;
27039;SDS011;14589;51.578;7.306;2022-08-19T04:38:47;9.63;;;5.85;;
27039;SDS011;14589;51.578;7.306;2022-08-19T04:41:13;9.50;;;5.78;;
27039;SDS011;14589;51.578;7.306;2022-08-19T04:43:57;11.30;;;6.18;;
27039;SDS011;14589;51.578;7.306;2022-08-19T04:46:22;10.23;;;6.97;;
27039;SDS011;14589;51.578;7.306;2022-08-19T04:48:47;10.25;;;6.50;;
27039;SDS011;14589;51.578;7.306;2022-08-19T04:51:13;11.45;;;7.38;;
27039;SDS011;14589;51.578;7.306;2022-08-19T04:53:39;11.25;;;7.00;;
27039;SDS011;14589;51.578;7.306;2022-08-19T04:56:06;13.45;;;8.23;;
27039;SDS011;14589;51.578;7.306;2022-08-19T04:58:33;13.13;;;7.05;;
27039;SDS011;14589;51.578;7.306;2022-08-19T05:00:59;12.00;;;7.20;;
27039;SDS011;14589;51.578;7.306;2022-08-19T05:03:25;13.30;;;7.57;;
27039;SDS011;14589;51.578;7.306;2022-08-19T05:05:51;7.53;;;6.00;;
27039;SDS011;14589;51.578;7.306;2022-08-19T05:08:17;8.85;;;6.25;;
27039;SDS011;14589;51.578;7.306;2022-08-19T05:10:49;8.85;;;6.50;;
27039;SDS011;14589;51.578;7.306;2022-08-19T05:13:15;9.73;;;6.47;;
27039;SDS011;14589;51.578;7.306;2022-08-19T05:15:42;8.63;;;5.68;;
27039;SDS011;14589;51.578;7.306;2022-08-19T05:18:08;9.57;;;5.85;;
27039;SDS011;14589;51.578;7.306;2022-08-19T05:20:52;8.75;;;5.90;;
27039;SDS011;14589;51.578;7.306;2022-08-19T05:23:37;10.38;;;6.78;;
27039;SDS011;14589;51.578;7.306;2022-08-19T05:26:02;8.75;;;5.28;;
27039;SDS011;14589;51.578;7.306;2022-08-19T05:28:28;7.13;;;5.25;;
27039;SDS011;14589;51.578;7.306;2022-08-19T05:30:53;9.20;;;5.75;;
27039;SDS011;14589;51.578;7.306;2022-08-19T05:33:20;9.57;;;5.97;;
27039;SDS011;14589;51.578;7.306;2022-08-19T05:35:46;8.30;;;5.57;;
27039;SDS011;14589;51.578;7.306;2022-08-19T05:38:13;9.40;;;6.22;;
27039;SDS011;14589;51.578;7.306;2022-08-19T05:40:38;8.60;;;6.20;;
27039;SDS011;14589;51.578;7.306;2022-08-19T05:43:05;11.68;;;6.88;;
27039;SDS011;14589;51.578;7.306;2022-08-19T05:45:32;10.27;;;5.25;;
27039;SDS011;14589;51.578;7.306;2022-08-19T05:47:57;9.40;;;6.25;;
27039;SDS011;14589;51.578;7.306;2022-08-19T05:50:23;8.55;;;5.50;;
27039;SDS011;14589;51.578;7.306;2022-08-19T05:52:51;12.50;;;7.53;;
27039;SDS011;14589;51.578;7.306;2022-08-19T05:55:17;13.95;;;8.75;;
27039;SDS011;14589;51.578;7.306;2022-08-19T05:57:45;17.50;;;10.98;;
27039;SDS011;14589;51.578;7.306;2022-08-19T06:00:11;21.88;;;14.50;;
27039;SDS011;14589;51.578;7.306;2022-08-19T06:02:37;24.95;;;15.02;;
27039;SDS011;14589;51.578;7.306;2022-08-19T06:05:03;28.63;;;17.23;;
27039;SDS011;14589;51.578;7.306;2022-08-19T06:07:31;26.33;;;17.25;;
27039;SDS011;14589;51.578;7.306;2022-08-19T06:09:57;32.85;;;20.35;;
27039;SDS011;14589;51.578;7.306;2022-08-19T06:12:22;22.92;;;16.00;;
27039;SDS011;14589;51.578;7.306;2022-08-19T06:14:56;23.90;;;15.57;;
27039;SDS011;14589;51.578;7.306;2022-08-19T06:17:22;26.00;;;16.20;;
27039;SDS011;14589;51.578;7.306;2022-08-19T06:19:50;26.88;;;17.95;;
27039;SDS011;14589;51.578;7.306;2022-08-19T06:22:15;26.98;;;17.55;;
27039;SDS011;14589;51.578;7.306;2022-08-19T06:24:41;26.95;;;16.08;;
27039;SDS011;14589;51.578;7.306;2022-08-19T06:27:06;28.33;;;17.05;;
27039;SDS011;14589;51.578;7.306;2022-08-19T06:29:32;22.02;;;14.95;;
27039;SDS011;14589;51.578;7.306;2022-08-19T06:32:00;20.27;;;13.50;;
27039;SDS011;14589;51.578;7.306;2022-08-19T06:34:29;28.38;;;16.80;;
27039;SDS011;14589;51.578;7.306;2022-08-19T06:36:56;30.05;;;16.20;;
27039;SDS011;14589;51.578;7.306;2022-08-19T06:39:26;27.13;;;16.45;;
27039;SDS011;14589;51.578;7.306;2022-08-19T06:41:55;23.15;;;15.80;;
27039;SDS011;14589;51.578;7.306;2022-08-19T06:44:22;20.23;;;13.52;;
27039;SDS011;14589;51.578;7.306;2022-08-19T06:46:49;18.63;;;13.18;;
27039;SDS011;14589;51.578;7.306;2022-08-19T06:49:15;16.20;;;11.15;;
27039;SDS011;14589;51.578;7.306;2022-08-19T06:51:42;24.42;;;16.10;;
27039;SDS011;14589;51.578;7.306;2022-08-19T06:54:09;21.65;;;13.38;;
27039;SDS011;14589;51.578;7.306;2022-08-19T06:56:36;27.15;;;16.40;;
27039;SDS011;14589;51.578;7.306;2022-08-19T06:59:10;29.48;;;16.23;;
27039;SDS011;14589;51.578;7.306;2022-08-19T07:01:43;26.60;;;17.05;;
27039;SDS011;14589;51.578;7.306;2022-08-19T07:04:14;24.88;;;14.23;;
27039;SDS011;14589;51.578;7.306;2022-08-19T07:06:41;28.65;;;16.08;;
27039;SDS011;14589;51.578;7.306;2022-08-19T07:09:08;22.98;;;14.15;;
27039;SDS011;14589;51.578;7.306;2022-08-19T07:11:34;19.52;;;12.63;;
27039;SDS011;14589;51.578;7.306;2022-08-19T07:14:00;16.95;;;10.88;;
27039;SDS011;14589;51.578;7.306;2022-08-19T07:16:26;29.13;;;15.02;;
27039;SDS011;14589;51.578;7.306;2022-08-19T07:18:53;27.45;;;15.20;;
27039;SDS011;14589;51.578;7.306;2022-08-19T07:21:20;27.42;;;15.25;;
27039;SDS011;14589;51.578;7.306;2022-08-19T07:23:47;20.45;;;13.60;;
27039;SDS011;14589;51.578;7.306;2022-08-19T07:26:21;22.75;;;13.13;;
27039;SDS011;14589;51.578;7.306;2022-08-19T07:28:52;22.50;;;13.38;;
27039;SDS011;14589;51.578;7.306;2022-08-19T07:31:20;21.02;;;11.10;;
27039;SDS011;14589;51.578;7.306;2022-08-19T07:33:47;20.90;;;10.95;;
27039;SDS011;14589;51.578;7.306;2022-08-19T07:36:15;16.98;;;13.18;;
27039;SDS011;14589;51.578;7.306;2022-08-19T07:38:43;19.65;;;11.95;;
27039;SDS011;14589;51.578;7.306;2022-08-19T07:41:13;21.73;;;11.85;;
27039;SDS011;14589;51.578;7.306;2022-08-19T07:43:41;17.02;;;11.43;;
27039;SDS011;14589;51.578;7.306;2022-08-19T07:46:08;19.38;;;11.45;;
27039;SDS011;14589;51.578;7.306;2022-08-19T07:48:34;20.95;;;13.63;;
27039;SDS011;14589;51.578;7.306;2022-08-19T07:51:00;14.00;;;10.30;;
27039;SDS011;14589;51.578;7.306;2022-08-19T07:53:28;21.42;;;12.20;;
27039;SDS011;14589;51.578;7.306;2022-08-19T07:55:55;18.05;;;10.45;;
27039;SDS011;14589;51.578;7.306;2022-08-19T07:58:23;16.73;;;8.75;;
27039;SDS011;14589;51.578;7.306;2022-08-19T08:00:49;16.15;;;7.95;;
27039;SDS011;14589;51.578;7.306;2022-08-19T08:03:16;19.45;;;9.60;;
27039;SDS011;14589;51.578;7.306;2022-08-19T08:05:43;15.70;;;9.68;;
27039;SDS011;14589;51.578;7.306;2022-08-19T08:08:28;11.95;;;7.35;;
27039;SDS011;14589;51.578;7.306;2022-08-19T08:10:56;15.02;;;8.30;;
27039;SDS011;14589;51.578;7.306;2022-08-19T08:13:22;15.15;;;9.25;;
27039;SDS011;14589;51.578;7.306;2022-08-19T08:15:49;17.40;;;10.48;;
27039;SDS011;14589;51.578;7.306;2022-08-19T08:18:14;11.85;;;8.73;;
27039;SDS011;14589;51.578;7.306;2022-08-19T08:20:40;12.23;;;5.63;;
27039;SDS011;14589;51.578;7.306;2022-08-19T08:23:05;13.10;;;9.10;;
27039;SDS011;14589;51.578;7.306;2022-08-19T08:28:15;12.38;;;8.43;;
27039;SDS011;14589;51.578;7.306;2022-08-19T08:30:41;12.90;;;8.85;;
27039;SDS011;14589;51.578;7.306;2022-08-19T08:33:08;14.60;;;9.52;;
27039;SDS011;14589;51.578;7.306;2022-08-19T08:35:34;12.02;;;9.45;;
27039;SDS011;14589;51.578;7.306;2022-08-19T08:37:59;15.23;;;10.57;;
27039;SDS011;14589;51.578;7.306;2022-08-19T08:43:35;11.07;;;7.88;;
27039;SDS011;14589;51.578;7.306;2022-08-19T08:46:04;16.92;;;10.43;;
27039;SDS011;14589;51.578;7.306;2022-08-19T08:51:12;14.00;;;8.60;;
27039;SDS011;14589;51.578;7.306;2022-08-19T08:53:42;13.68;;;10.25;;
27039;SDS011;14589;51.578;7.306;2022-08-19T08:56:10;10.18;;;7.55;;
27039;SDS011;14589;51.578;7.306;2022-08-19T09:01:19;11.00;;;8.13;;
27039;SDS011;14589;51.578;7.306;2022-08-19T09:03:45;11.10;;;6.78;;
27039;SDS011;14589;51.578;7.306;2022-08-19T09:06:18;11.73;;;6.95;;
27039;SDS011;14589;51.578;7.306;2022-08-19T09:09:30;8.20;;;5.75;;
27039;SDS011;14589;51.578;7.306;2022-08-19T09:12:06;12.55;;;8.02;;
27039;SDS011;14589;51.578;7.306;2022-08-19T09:14:43;9.38;;;6.50;;
27039;SDS011;14589;51.578;7.306;2022-08-19T09:17:10;8.43;;;5.38;;
27039;SDS011;14589;51.578;7.306;2022-08-19T09:22:19;12.82;;;8.85;;
27039;SDS011;14589;51.578;7.306;2022-08-19T09:24:49;12.73;;;8.63;;
27039;SDS011;14589;51.578;7.306;2022-08-19T09:27:15;14.95;;;10.48;;
27039;SDS011;14589;51.578;7.306;2022-08-19T09:29:41;11.13;;;6.07;;
27039;SDS011;14589;51.578;7.306;2022-08-19T09:32:06;11.13;;;7.15;;
27039;SDS011;14589;51.578;7.306;2022-08-19T09:34:32;12.68;;;9.00;;
27039;SDS011;14589;51.578;7.306;2022-08-19T09:36:58;13.73;;;7.93;;
27039;SDS011;14589;51.578;7.306;2022-08-19T09:39:25;10.07;;;7.90;;
27039;SDS011;14589;51.578;7.306;2022-08-19T09:41:50;16.30;;;10.15;;
27039;SDS011;14589;51.578;7.306;2022-08-19T09:44:16;10.85;;;8.55;;
27039;SDS011;14589;51.578;7.306;2022-08-19T09:46:42;12.32;;;9.23;;
27039;SDS011;14589;51.578;7.306;2022-08-19T09:49:07;12.18;;;8.55;;
27039;SDS011;14589;51.578;7.306;2022-08-19T09:51:33;14.73;;;8.95;;
27039;SDS011;14589;51.578;7.306;2022-08-19T09:53:59;17.20;;;11.43;;
27039;SDS011;14589;51.578;7.306;2022-08-19T09:56:26;18.67;;;11.63;;
27039;SDS011;14589;51.578;7.306;2022-08-19T09:58:52;10.73;;;6.80;;
27039;SDS011;14589;51.578;7.306;2022-08-19T10:01:19;14.32;;;9.38;;
27039;SDS011;14589;51.578;7.306;2022-08-19T10:03:47;13.68;;;10.98;;
27039;SDS011;14589;51.578;7.306;2022-08-19T10:06:18;13.30;;;9.07;;
27039;SDS011;14589;51.578;7.306;2022-08-19T10:08:44;16.15;;;9.60;;
27039;SDS011;14589;51.578;7.306;2022-08-19T10:11:10;15.23;;;10.00;;
27039;SDS011;14589;51.578;7.306;2022-08-19T10:13:35;10.80;;;8.85;;
27039;SDS011;14589;51.578;7.306;2022-08-19T10:16:09;9.70;;;8.00;;
27039;SDS011;14589;51.578;7.306;2022-08-19T10:18:39;12.07;;;7.80;;
27039;SDS011;14589;51.578;7.306;2022-08-19T10:23:46;13.00;;;9.10;;
27039;SDS011;14589;51.578;7.306;2022-08-19T10:26:14;13.93;;;10.90;;
27039;SDS011;14589;51.578;7.306;2022-08-19T10:28:53;13.23;;;10.57;;
27039;SDS011;14589;51.578;7.306;2022-08-19T10:31:20;18.45;;;10.85;;
27039;SDS011;14589;51.578;7.306;2022-08-19T10:33:48;14.73;;;9.80;;
27039;SDS011;14589;51.578;7.306;2022-08-19T10:36:16;15.60;;;10.25;;
27039;SDS011;14589;51.578;7.306;2022-08-19T10:38:43;13.27;;;8.85;;
27039;SDS011;14589;51.578;7.306;2022-08-19T10:41:11;11.15;;;8.77;;
27039;SDS011;14589;51.578;7.306;2022-08-19T10:43:39;14.43;;;10.57;;
27039;SDS011;14589;51.578;7.306;2022-08-19T10:46:10;16.13;;;10.13;;
27039;SDS011;14589;51.578;7.306;2022-08-19T10:48:37;15.65;;;10.10;;
27039;SDS011;14589;51.578;7.306;2022-08-19T10:51:03;15.75;;;9.40;;
27039;SDS011;14589;51.578;7.306;2022-08-19T10:53:47;12.73;;;8.07;;
27039;SDS011;14589;51.578;7.306;2022-08-19T10:56:13;11.27;;;8.60;;
27039;SDS011;14589;51.578;7.306;2022-08-19T11:01:23;11.30;;;7.63;;
27039;SDS011;14589;51.578;7.306;2022-08-19T11:03:49;13.32;;;10.05;;
27039;SDS011;14589;51.578;7.306;2022-08-19T11:06:15;9.60;;;8.60;;
27039;SDS011;14589;51.578;7.306;2022-08-19T11:08:40;16.42;;;7.97;;
27039;SDS011;14589;51.578;7.306;2022-08-19T11:11:07;12.30;;;7.82;;
27039;SDS011;14589;51.578;7.306;2022-08-19T11:13:34;12.60;;;7.07;;
27039;SDS011;14589;51.578;7.306;2022-08-19T11:18:33;8.73;;;6.75;;
27039;SDS011;14589;51.578;7.306;2022-08-19T11:23:45;10.43;;;6.35;;
27039;SDS011;14589;51.578;7.306;2022-08-19T11:26:12;9.05;;;7.43;;
27039;SDS011;14589;51.578;7.306;2022-08-19T11:28:38;12.50;;;6.90;;
27039;SDS011;14589;51.578;7.306;2022-08-19T11:31:09;7.70;;;6.40;;
27039;SDS011;14589;51.578;7.306;2022-08-19T11:33:38;9.68;;;6.82;;
27039;SDS011;14589;51.578;7.306;2022-08-19T11:36:03;5.90;;;4.28;;
27039;SDS011;14589;51.578;7.306;2022-08-19T11:38:29;7.45;;;4.85;;
27039;SDS011;14589;51.578;7.306;2022-08-19T11:40:59;12.07;;;5.82;;
27039;SDS011;14589;51.578;7.306;2022-08-19T11:43:26;11.68;;;8.50;;
27039;SDS011;14589;51.578;7.306;2022-08-19T11:45:53;11.35;;;8.35;;
27039;SDS011;14589;51.578;7.306;2022-08-19T11:48:19;11.38;;;8.98;;
27039;SDS011;14589;51.578;7.306;2022-08-19T11:50:47;16.48;;;7.97;;
27039;SDS011;14589;51.578;7.306;2022-08-19T11:53:14;12.00;;;7.75;;
27039;SDS011;14589;51.578;7.306;2022-08-19T11:55:40;11.52;;;8.88;;
27039;SDS011;14589;51.578;7.306;2022-08-19T11:58:05;9.15;;;6.45;;
27039;SDS011;14589;51.578;7.306;2022-08-19T12:00:33;7.50;;;6.38;;
27039;SDS011;14589;51.578;7.306;2022-08-19T12:03:00;9.98;;;6.90;;
27039;SDS011;14589;51.578;7.306;2022-08-19T12:05:26;7.70;;;6.50;;
27039;SDS011;14589;51.578;7.306;2022-08-19T12:07:51;9.25;;;6.65;;
27039;SDS011;14589;51.578;7.306;2022-08-19T12:10:17;9.13;;;7.25;;
27039;SDS011;14589;51.578;7.306;2022-08-19T12:12:42;9.05;;;7.10;;
27039;SDS011;14589;51.578;7.306;2022-08-19T12:15:10;9.48;;;7.85;;
27039;SDS011;14589;51.578;7.306;2022-08-19T12:17:37;9.65;;;7.72;;
27039;SDS011;14589;51.578;7.306;2022-08-19T12:20:03;9.38;;;8.07;;
27039;SDS011;14589;51.578;7.306;2022-08-19T12:22:29;12.05;;;8.82;;
27039;SDS011;14589;51.578;7.306;2022-08-19T12:24:55;10.88;;;7.97;;
27039;SDS011;14589;51.578;7.306;2022-08-19T12:27:20;8.90;;;8.00;;
27039;SDS011;14589;51.578;7.306;2022-08-19T12:29:46;7.50;;;6.80;;
27039;SDS011;14589;51.578;7.306;2022-08-19T12:32:11;13.95;;;9.50;;
27039;SDS011;14589;51.578;7.306;2022-08-19T12:34:37;11.30;;;9.07;;
27039;SDS011;14589;51.578;7.306;2022-08-19T12:37:04;10.68;;;8.75;;
27039;SDS011;14589;51.578;7.306;2022-08-19T12:39:33;10.98;;;7.93;;
27039;SDS011;14589;51.578;7.306;2022-08-19T12:41:59;11.43;;;9.95;;
27039;SDS011;14589;51.578;7.306;2022-08-19T12:44:24;8.55;;;7.65;;
27039;SDS011;14589;51.578;7.306;2022-08-19T12:46:50;11.52;;;8.70;;
27039;SDS011;14589;51.578;7.306;2022-08-19T12:49:15;9.27;;;7.25;;
27039;SDS011;14589;51.578;7.306;2022-08-19T12:51:41;5.10;;;4.30;;
27039;SDS011;14589;51.578;7.306;2022-08-19T12:54:07;5.47;;;4.43;;
27039;SDS011;14589;51.578;7.306;2022-08-19T12:56:33;8.82;;;4.65;;
27039;SDS011;14589;51.578;7.306;2022-08-19T12:59:00;5.70;;;5.10;;
27039;SDS011;14589;51.578;7.306;2022-08-19T13:01:27;7.07;;;5.93;;
27039;SDS011;14589;51.578;7.306;2022-08-19T13:03:55;7.13;;;5.72;;
27039;SDS011;14589;51.578;7.306;2022-08-19T13:06:20;7.45;;;6.30;;
27039;SDS011;14589;51.578;7.306;2022-08-19T13:08:46;5.80;;;5.20;;
27039;SDS011;14589;51.578;7.306;2022-08-19T13:11:13;7.97;;;5.57;;
27039;SDS011;14589;51.578;7.306;2022-08-19T13:13:42;7.45;;;5.85;;
27039;SDS011;14589;51.578;7.306;2022-08-19T13:16:09;9.25;;;6.78;;
27039;SDS011;14589;51.578;7.306;2022-08-19T13:18:36;9.30;;;7.15;;
27039;SDS011;14589;51.578;7.306;2022-08-19T13:21:03;10.05;;;7.53;;
27039;SDS011;14589;51.578;7.306;2022-08-19T13:23:29;7.93;;;6.25;;
27039;SDS011;14589;51.578;7.306;2022-08-19T13:25:59;9.43;;;6.95;;
27039;SDS011;14589;51.578;7.306;2022-08-19T13:28:25;11.52;;;6.97;;
27039;SDS011;14589;51.578;7.306;2022-08-19T13:30:51;13.40;;;7.50;;
27039;SDS011;14589;51.578;7.306;2022-08-19T13:33:35;7.13;;;6.25;;
27039;SDS011;14589;51.578;7.306;2022-08-19T13:36:00;12.25;;;6.75;;
27039;SDS011;14589;51.578;7.306;2022-08-19T13:38:27;7.82;;;6.10;;
27039;SDS011;14589;51.578;7.306;2022-08-19T13:40:53;10.18;;;5.82;;
27039;SDS011;14589;51.578;7.306;2022-08-19T13:43:21;8.70;;;5.70;;
27039;SDS011;14589;51.578;7.306;2022-08-19T13:45:52;7.93;;;6.22;;
27039;SDS011;14589;51.578;7.306;2022-08-19T13:48:20;8.35;;;6.93;;
27039;SDS011;14589;51.578;7.306;2022-08-19T13:50:45;8.35;;;5.72;;
27039;SDS011;14589;51.578;7.306;2022-08-19T13:53:13;8.07;;;5.88;;
27039;SDS011;14589;51.578;7.306;2022-08-19T13:55:39;8.85;;;5.30;;
27039;SDS011;14589;51.578;7.306;2022-08-19T13:58:05;6.75;;;5.47;;
27039;SDS011;14589;51.578;7.306;2022-08-19T14:00:32;7.45;;;5.20;;
27039;SDS011;14589;51.578;7.306;2022-08-19T14:03:01;8.60;;;5.25;;
27039;SDS011;14589;51.578;7.306;2022-08-19T14:05:27;7.28;;;4.88;;
27039;SDS011;14589;51.578;7.306;2022-08-19T14:07:55;7.95;;;4.85;;
27039;SDS011;14589;51.578;7.306;2022-08-19T14:10:22;5.65;;;4.60;;
27039;SDS011;14589;51.578;7.306;2022-08-19T14:12:48;6.40;;;4.47;;
27039;SDS011;14589;51.578;7.306;2022-08-19T14:15:14;5.45;;;4.60;;
27039;SDS011;14589;51.578;7.306;2022-08-19T14:17:41;7.18;;;5.00;;
27039;SDS011;14589;51.578;7.306;2022-08-19T14:20:08;10.43;;;4.55;;
27039;SDS011;14589;51.578;7.306;2022-08-19T14:22:35;10.27;;;4.47;;
27039;SDS011;14589;51.578;7.306;2022-08-19T14:25:03;8.38;;;4.00;;
27039;SDS011;14589;51.578;7.306;2022-08-19T14:27:30;9.38;;;3.85;;
27039;SDS011;14589;51.578;7.306;2022-08-19T14:29:57;8.98;;;4.60;;
27039;SDS011;14589;51.578;7.306;2022-08-19T14:32:23;5.43;;;4.28;;
27039;SDS011;14589;51.578;7.306;2022-08-19T14:34:51;5.43;;;4.40;;
27039;SDS011;14589;51.578;7.306;2022-08-19T14:37:17;4.72;;;4.20;;
27039;SDS011;14589;51.578;7.306;2022-08-19T14:39:42;8.35;;;4.72;;
27039;SDS011;14589;51.578;7.306;2022-08-19T14:42:08;5.50;;;4.22;;
27039;SDS011;14589;51.578;7.306;2022-08-19T14:44:34;10.13;;;4.18;;
27039;SDS011;14589;51.578;7.306;2022-08-19T14:47:00;14.73;;;5.15;;
27039;SDS011;14589;51.578;7.306;2022-08-19T14:49:26;7.22;;;4.75;;
27039;SDS011;14589;51.578;7.306;2022-08-19T14:51:51;6.30;;;4.07;;
27039;SDS011;14589;51.578;7.306;2022-08-19T14:54:17;6.63;;;4.15;;
27039;SDS011;14589;51.578;7.306;2022-08-19T14:56:42;6.70;;;3.92;;
27039;SDS011;14589;51.578;7.306;2022-08-19T14:59:08;6.90;;;4.43;;
27039;SDS011;14589;51.578;7.306;2022-08-19T15:01:34;7.68;;;4.82;;
27039;SDS011;14589;51.578;7.306;2022-08-19T15:03:59;5.90;;;4.30;;
27039;SDS011;14589;51.578;7.306;2022-08-19T15:06:25;6.85;;;4.30;;
27039;SDS011;14589;51.578;7.306;2022-08-19T15:08:51;4.05;;;3.63;;